13:12
Airports
History
Links
Donate
Help keep this website running!
PayPal
Bitcoin
This page is community maintained. The information is intended for PC simulator navigation or reference.
Always use approved charts for navigation.
C11
AmanaUpdated 21-May-2014
Amana (C11)
Amana, Iowa, United States (52203)
4
Lat/Lng:41° 47' 36.9" N / 91° 51' 53.18" W
41.793583 / -91.864772
Elevation:712'ft / 217mMSL
Declination:E003°
ID / ICAO:C11
FAA:C11
Runways:1
Longest:08-26
Grass 789m / 2,587ft
(Edited 2014-05-21) [ Sign in to Edit ]
Nearby Weather12:52 GMT 2017-10-17
Nearby weather at KCID, The Eastern Iowa located 10.1 nautical miles from C11
Altimeter: 30.14
Visibility: 10.0 statute miles
Wind: 9 knots (from 200°)
Temp: 9°c / 48°f
Humidity: 76.0%

METAR: KCID 171252Z 20009KT 10SM CLR 09/05 A3014 RMK AO2 SLP207 T00940050

(Powered by phpweather)
Nearby VORs <50NM
Nearby NDBs
Runway 08 / 26
Dimensions:788.6 x 29m 2587' x 95'ft
Surface:Grass
Runway 08 [A]Runway 26 [B]
Heading:080°MH  083°TH260°MH   263°TH
Lat:
Lng:
41° 47' 43.46"N
91° 52' 32.73"W
41° 47' 46.59"N
91° 51' 58.55"W
User Notes and Comments
41° 47' 36.9" N / 91° 51' 53.18" W
Distance To
Airport ID:
Nearby Airports
(R) Green Castle 7.5 NM
IA24 ESE 110°
(C) The Eastern Iowa 10.1 NM
KCID ( WX ) NE 51°
(R) Weiss 11.2 NM
4IA8 SSW 205°
4 Chain Lakes Airpark 19.4 NM
5C7 NNE 23°
(U) Iowa City Muni 19.5 NM
KIOW ( WX ) ESE 123°
(R) Picayune 19.7 NM
IA16 ESE 107°
4 Sherman 20.4 NM
IA28 NNE 26°
VFR Chart
Flight Planning at SkyVector.com